createdAt,value
2024-02-10T00:01:19.610Z,98453.50
2024-02-10T00:03:47.026Z,98455.78
2024-02-10T00:06:17.274Z,98449.97
2024-02-10T00:08:45.376Z,98453.66
2024-02-10T00:11:13.023Z,98453.66
2024-02-10T00:13:43.100Z,98452.88
2024-02-10T00:16:11.244Z,98456.88
2024-02-10T00:18:38.012Z,98451.84
2024-02-10T00:21:05.780Z,98452.59
2024-02-10T00:23:32.416Z,98449.09
2024-02-10T00:25:59.210Z,98447.25
2024-02-10T00:28:26.427Z,98453.53
2024-02-10T00:31:01.169Z,98447.72
2024-02-10T00:33:27.941Z,98450.47
2024-02-10T00:35:54.591Z,98451.69
2024-02-10T00:38:22.315Z,98457.66
2024-02-10T00:40:50.044Z,98455.38
2024-02-10T00:43:16.963Z,98448.34
2024-02-10T00:45:47.659Z,98459.34
2024-02-10T00:48:14.824Z,98450.34
2024-02-10T00:50:43.117Z,98458.59
2024-02-10T00:53:09.849Z,98457.06
2024-02-10T00:55:36.386Z,98457.50
2024-02-10T00:58:05.647Z,98454.75
2024-02-10T01:00:33.369Z,98450.47
2024-02-10T01:03:00.087Z,98460.72
2024-02-10T01:05:26.831Z,98466.69
2024-02-10T01:07:53.560Z,98465.44
2024-02-10T01:10:21.716Z,98459.19
2024-02-10T01:12:49.086Z,98458.13
2024-02-10T01:15:18.036Z,98455.84
2024-02-10T01:17:47.477Z,98459.81
2024-02-10T01:20:18.765Z,98457.06
2024-02-10T01:22:46.574Z,98460.28
2024-02-10T01:25:14.036Z,98462.25
2024-02-10T01:27:45.474Z,98457.53
2024-02-10T01:30:12.407Z,98468.22
2024-02-10T01:32:38.987Z,98467.47
2024-02-10T01:35:06.068Z,98460.44
2024-02-10T01:37:32.727Z,98468.69
2024-02-10T01:39:59.442Z,98466.69
2024-02-10T01:42:38.919Z,98472.66
2024-02-10T01:45:13.300Z,98464.13
2024-02-10T01:47:44.737Z,98461.38
2024-02-10T01:50:12.697Z,98466.88
2024-02-10T01:52:40.503Z,98468.06
2024-02-10T01:55:08.591Z,98462.28
2024-02-10T01:57:35.886Z,98466.53
2024-02-10T02:00:07.287Z,98476.78
2024-02-10T02:02:34.712Z,98467.00
2024-02-10T02:05:04.958Z,98458.75
2024-02-10T02:07:33.016Z,98460.00
2024-02-10T02:10:01.201Z,98463.97
2024-02-10T02:12:28.639Z,98463.66
2024-02-10T02:14:58.947Z,98458.94
2024-02-10T02:17:26.248Z,98459.41
2024-02-10T02:19:53.375Z,98457.41
2024-02-10T02:22:20.644Z,98456.66
2024-02-10T02:24:48.399Z,98455.09
2024-02-10T02:27:15.354Z,98453.56
2024-02-10T02:29:41.906Z,98461.06
2024-02-10T02:32:10.181Z,98458.31
2024-02-10T02:34:37.104Z,98452.06
2024-02-10T02:37:04.337Z,98455.28
2024-02-10T02:39:34.891Z,98454.03
2024-02-10T02:42:07.093Z,98451.00
2024-02-10T02:44:34.037Z,98454.97
2024-02-10T02:47:06.481Z,98454.50
2024-02-10T02:49:34.381Z,98458.47
2024-02-10T02:52:01.079Z,98452.69
2024-02-10T02:54:27.565Z,98449.94
2024-02-10T02:57:01.274Z,98455.44
2024-02-10T02:59:27.906Z,98451.94
2024-02-10T03:01:55.425Z,98449.19
2024-02-10T03:04:22.219Z,98448.09
2024-02-10T03:06:51.295Z,98445.34
2024-02-10T03:09:18.069Z,98439.84
2024-02-10T03:11:44.637Z,98443.38
2024-02-10T03:14:11.188Z,98438.03
2024-02-10T03:16:40.513Z,98430.56
2024-02-10T03:19:08.312Z,98428.56
2024-02-10T03:21:36.809Z,98422.78
2024-02-10T03:24:04.897Z,98424.78
2024-02-10T03:26:38.869Z,98433.00
2024-02-10T03:29:06.780Z,98433.00
2024-02-10T03:31:34.046Z,98423.72
2024-02-10T03:34:01.387Z,98429.50
2024-02-10T03:36:28.504Z,98426.47
2024-02-10T03:38:55.932Z,98423.72
2024-02-10T03:41:22.757Z,98429.66
2024-02-10T03:43:49.537Z,98429.22
2024-02-10T03:46:16.314Z,98430.41
2024-02-10T03:48:43.965Z,98433.91
2024-02-10T03:51:12.425Z,98436.34
2024-02-10T03:53:40.205Z,98434.38
2024-02-10T03:56:10.644Z,98441.84
2024-02-10T03:58:42.689Z,98443.06
2024-02-10T04:01:15.227Z,98444.31
2024-02-10T04:03:49.223Z,98445.53
2024-02-10T04:06:17.076Z,98451.47
2024-02-10T04:08:47.537Z,98446.75
2024-02-10T04:11:15.018Z,98449.50
2024-02-10T04:13:45.250Z,98447.97
2024-02-10T04:16:13.636Z,98443.72
2024-02-10T04:18:41.874Z,98443.38
2024-02-10T04:21:09.647Z,98451.16
2024-02-10T04:23:38.675Z,98447.66
2024-02-10T04:26:08.380Z,98440.63
2024-02-10T04:28:35.209Z,98445.38
2024-02-10T04:31:01.806Z,98454.38
2024-02-10T04:33:28.434Z,98445.84
2024-02-10T04:35:55.040Z,98448.56
2024-02-10T04:38:23.240Z,98447.81
2024-02-10T04:40:49.873Z,98452.53
2024-02-10T04:43:18.649Z,98446.28
2024-02-10T04:45:45.624Z,98447.06
2024-02-10T04:48:15.022Z,98444.78
2024-02-10T04:50:42.423Z,98445.22
2024-02-10T04:53:09.312Z,98440.50
2024-02-10T04:55:37.901Z,98447.19
2024-02-10T04:58:04.682Z,98452.69
2024-02-10T05:00:33.469Z,98449.16
2024-02-10T05:03:03.968Z,98449.59
2024-02-10T05:05:30.868Z,98456.63
2024-02-10T05:07:58.551Z,98455.84
2024-02-10T05:10:26.012Z,98463.34
2024-02-10T05:12:53.315Z,98462.56
2024-02-10T05:15:24.010Z,98457.56
2024-02-10T05:17:52.103Z,98460.28
2024-02-10T05:20:24.669Z,98459.53
2024-02-10T05:22:53.207Z,98465.50
2024-02-10T05:25:22.140Z,98467.78
2024-02-10T05:27:49.379Z,98472.50
2024-02-10T05:30:21.938Z,98475.72
2024-02-10T05:32:51.117Z,98483.19
2024-02-10T05:35:19.613Z,98483.94
2024-02-10T05:37:48.101Z,98486.69
2024-02-10T05:40:15.873Z,98485.16
2024-02-10T05:42:46.821Z,98482.41
2024-02-10T05:45:15.232Z,98484.41
2024-02-10T05:47:41.827Z,98489.13
2024-02-10T05:50:19.336Z,98484.06
2024-02-10T05:52:49.416Z,98486.38
2024-02-10T05:55:22.743Z,98484.06
2024-02-10T05:57:49.661Z,98479.81
2024-02-10T06:00:17.049Z,98478.28
2024-02-10T06:02:43.737Z,98482.56
2024-02-10T06:05:12.528Z,98486.06
2024-02-10T06:07:39.804Z,98483.78
2024-02-10T06:10:16.398Z,98492.00
2024-02-10T06:12:47.697Z,98494.00
2024-02-10T06:15:14.694Z,98494.00
2024-02-10T06:17:42.374Z,98497.19
2024-02-10T06:20:15.703Z,98501.47
2024-02-10T06:22:43.496Z,98501.94
2024-02-10T06:25:13.875Z,98510.94
2024-02-10T06:27:46.823Z,98510.94
2024-02-10T06:30:15.599Z,98509.41
2024-02-10T06:32:42.500Z,98513.38
2024-02-10T06:35:11.056Z,98516.13
2024-02-10T06:37:43.717Z,98508.34
2024-02-10T06:40:15.433Z,98513.38
2024-02-10T06:42:44.264Z,98522.84
2024-02-10T06:45:22.093Z,98522.84
2024-02-10T06:47:51.105Z,98525.56
2024-02-10T06:50:29.081Z,98535.00
2024-02-10T06:52:56.654Z,98542.47
2024-02-10T06:55:28.371Z,98538.97
2024-02-10T06:57:58.744Z,98538.97
2024-02-10T07:00:25.973Z,98544.47
2024-02-10T07:02:52.900Z,98543.69
2024-02-10T07:05:20.896Z,98549.19
2024-02-10T07:10:19.132Z,98555.91
2024-02-10T07:12:48.262Z,98558.66
2024-02-10T07:15:20.302Z,98559.88
2024-02-10T07:17:48.717Z,98557.88
2024-02-10T07:20:21.250Z,98561.09
2024-02-10T07:22:56.317Z,98565.06
2024-02-10T07:25:24.362Z,98566.28
2024-02-10T07:27:51.752Z,98576.78
2024-02-10T07:30:19.555Z,98571.00
2024-02-10T07:32:49.649Z,98575.28
2024-02-10T07:35:23.440Z,98566.72
2024-02-10T07:37:53.451Z,98581.97
2024-02-10T07:40:20.459Z,98573.75
2024-02-10T07:42:47.576Z,98567.03
2024-02-10T07:45:14.162Z,98574.81
2024-02-10T07:47:40.726Z,98574.81
2024-02-10T07:50:08.123Z,98577.09
2024-02-10T07:52:34.828Z,98570.38
2024-02-10T07:55:01.961Z,98580.16
2024-02-10T07:57:30.381Z,98576.66
2024-02-10T07:59:57.983Z,98589.16
2024-02-10T08:02:28.783Z,98592.66
2024-02-10T08:04:58.313Z,98594.22
2024-02-10T08:07:31.081Z,98598.16
2024-02-10T08:09:59.608Z,98593.44
2024-02-10T08:12:27.070Z,98597.72
2024-02-10T08:14:58.456Z,98600.47
2024-02-10T08:17:28.087Z,98602.00
2024-02-10T08:19:58.318Z,98603.50
2024-02-10T08:22:32.311Z,98608.09
2024-02-10T08:25:00.121Z,98600.50
2024-02-10T08:27:29.941Z,98604.59
2024-02-10T08:29:57.749Z,98604.81
2024-02-10T08:32:25.899Z,98603.13
2024-02-10T08:34:52.825Z,98600.69
2024-02-10T08:37:19.749Z,98607.13
2024-02-10T08:39:46.781Z,98610.94
2024-02-10T08:42:14.268Z,98597.38
2024-02-10T08:44:41.764Z,98616.00
2024-02-10T08:47:08.620Z,98612.63
2024-02-10T08:49:36.328Z,98606.22
2024-02-10T08:52:11.539Z,98613.09
2024-02-10T08:54:43.209Z,98621.19
2024-02-10T08:57:14.328Z,98621.34
2024-02-10T08:59:43.019Z,98621.19
2024-02-10T09:02:10.152Z,98623.03
2024-02-10T09:04:40.057Z,98620.59
2024-02-10T09:07:08.070Z,98625.94
2024-02-10T09:09:35.283Z,98624.28
2024-02-10T09:12:02.131Z,98616.16
2024-02-10T09:14:31.213Z,98618.78
2024-02-10T09:16:58.054Z,98626.56
2024-02-10T09:19:24.904Z,98638.63
2024-02-10T09:21:56.471Z,98637.09
2024-02-10T09:24:24.932Z,98640.59
2024-02-10T09:26:51.722Z,98634.81
2024-02-10T09:29:19.785Z,98635.88
2024-02-10T09:31:47.133Z,98641.38
2024-02-10T09:34:13.915Z,98642.88
2024-02-10T09:36:44.573Z,98642.88
2024-02-10T09:39:14.138Z,98651.59
2024-02-10T09:41:41.353Z,98650.69
2024-02-10T09:44:12.108Z,98650.69
2024-02-10T09:46:39.741Z,98647.94
2024-02-10T09:49:11.313Z,98654.50
2024-02-10T09:51:43.511Z,98647.50
2024-02-10T09:54:16.732Z,98645.19
2024-02-10T09:56:45.213Z,98652.66
2024-02-10T09:59:19.682Z,98648.84
2024-02-10T10:01:46.883Z,98655.13
2024-02-10T10:04:13.854Z,98655.88
2024-02-10T10:06:44.896Z,98658.63
2024-02-10T10:09:14.003Z,98655.13
2024-02-10T10:11:42.136Z,98659.84
2024-02-10T10:14:09.672Z,98664.88
2024-02-10T10:16:36.439Z,98663.66
2024-02-10T10:19:03.698Z,98658.63
2024-02-10T10:21:33.277Z,98660.59
2024-02-10T10:24:03.342Z,98666.09
2024-02-10T10:26:29.863Z,98662.59
2024-02-10T10:28:56.733Z,98668.09
2024-02-10T10:31:25.161Z,98665.34
2024-02-10T10:33:52.349Z,98666.09
2024-02-10T10:36:19.030Z,98658.31
2024-02-10T10:38:46.099Z,98661.38
2024-02-10T10:41:23.533Z,98657.41
2024-02-10T10:43:52.303Z,98653.59
2024-02-10T10:46:20.871Z,98657.09
2024-02-10T10:48:50.704Z,98652.81
2024-02-10T10:51:22.733Z,98657.88
2024-02-10T10:53:50.907Z,98659.38
2024-02-10T10:56:23.549Z,98663.34
2024-02-10T10:58:56.861Z,98657.88
2024-02-10T11:01:24.760Z,98653.59
2024-02-10T11:03:56.385Z,98658.31
2024-02-10T11:06:24.033Z,98657.09
2024-02-10T11:08:55.247Z,98651.31
2024-02-10T11:11:22.189Z,98649.31
2024-02-10T11:13:49.073Z,98655.56
2024-02-10T11:16:16.386Z,98650.53
2024-02-10T11:18:45.332Z,98650.06
2024-02-10T11:21:17.617Z,98645.81
2024-02-10T11:23:44.138Z,98642.28
2024-02-10T11:26:12.126Z,98640.75
2024-02-10T11:28:39.403Z,98644.28
2024-02-10T11:31:10.759Z,98649.78
2024-02-10T11:33:39.944Z,98652.22
2024-02-10T11:36:11.969Z,98644.75
2024-02-10T11:38:39.115Z,98645.97
2024-02-10T11:41:06.547Z,98636.94
2024-02-10T11:43:34.677Z,98632.22
2024-02-10T11:46:01.617Z,98639.25
2024-02-10T11:48:29.639Z,98633.75
2024-02-10T11:51:03.576Z,98636.94
2024-02-10T11:53:32.890Z,98640.47
2024-02-10T11:56:06.671Z,98635.72
2024-02-10T11:58:33.518Z,98634.97
2024-02-10T12:01:00.143Z,98630.22
2024-02-10T12:03:26.810Z,98630.22
2024-02-10T12:05:54.197Z,98632.97
2024-02-10T12:08:21.566Z,98636.50
2024-02-10T12:10:48.219Z,98627.16
2024-02-10T12:13:20.125Z,98623.19
2024-02-10T12:15:46.779Z,98620.44
2024-02-10T12:18:14.755Z,98616.16
2024-02-10T12:20:42.050Z,98622.41
2024-02-10T12:23:08.579Z,98614.63
2024-02-10T12:25:36.168Z,98618.16
2024-02-10T12:28:02.787Z,98620.91
2024-02-10T12:30:29.328Z,98616.31
2024-02-10T12:32:55.978Z,98619.06
2024-02-10T12:35:22.928Z,98616.78
2024-02-10T12:37:50.286Z,98607.78
2024-02-10T12:40:18.566Z,98614.81
2024-02-10T12:42:45.315Z,98614.50
2024-02-10T12:45:15.740Z,98617.25
2024-02-10T12:47:44.586Z,98616.91
2024-02-10T12:50:11.765Z,98628.69
2024-02-10T12:52:39.455Z,98616.91
2024-02-10T12:55:10.941Z,98619.38
2024-02-10T12:57:39.353Z,98615.41
2024-02-10T13:00:21.307Z,98621.34
2024-02-10T13:02:52.417Z,98621.34
2024-02-10T13:05:21.527Z,98617.84
2024-02-10T13:07:48.489Z,98615.56
2024-02-10T13:10:21.710Z,98618.31
2024-02-10T13:12:54.737Z,98627.78
2024-02-10T13:15:24.714Z,98625.78
2024-02-10T13:17:53.001Z,98631.28
2024-02-10T13:20:21.395Z,98626.56
2024-02-10T13:22:48.913Z,98627.63
2024-02-10T13:25:16.661Z,98627.63
2024-02-10T13:27:44.763Z,98624.88
2024-02-10T13:30:12.599Z,98628.09
2024-02-10T13:32:40.692Z,98631.59
2024-02-10T13:35:18.699Z,98637.09
2024-02-10T13:38:06.133Z,98636.31
2024-02-10T13:40:52.329Z,98632.34
2024-02-10T13:43:38.578Z,98634.03
2024-02-10T13:46:24.085Z,98625.78
2024-02-10T13:49:09.438Z,98631.28
2024-02-10T13:51:54.375Z,98628.53
2024-02-10T13:54:39.461Z,98623.03
2024-02-10T13:57:24.608Z,98627.78
2024-02-10T13:59:51.053Z,98628.53
2024-02-10T14:02:17.777Z,98625.78
2024-02-10T14:04:48.514Z,98613.28
2024-02-10T14:07:32.199Z,98624.28
2024-02-10T14:10:11.925Z,98618.00
2024-02-10T14:12:46.295Z,98621.19
2024-02-10T14:15:21.819Z,98628.25
2024-02-10T14:17:49.004Z,98623.94
2024-02-10T14:20:27.170Z,98615.25
2024-02-10T14:22:55.299Z,98614.94
2024-02-10T14:25:26.797Z,98624.69
2024-02-10T14:28:00.605Z,98620.44
2024-02-10T14:30:39.101Z,98619.66
2024-02-10T14:33:09.454Z,98622.41
2024-02-10T14:35:45.929Z,98627.91
2024-02-10T14:38:25.275Z,98625.94
2024-02-10T14:40:55.257Z,98622.41
2024-02-10T14:43:22.386Z,98624.09
2024-02-10T14:45:49.025Z,98625.63
2024-02-10T14:48:17.002Z,98620.91
2024-02-10T14:50:44.744Z,98618.59
2024-02-10T14:53:11.996Z,98618.59
2024-02-10T14:55:39.550Z,98613.56
2024-02-10T14:58:09.378Z,98617.09
2024-02-10T15:00:37.360Z,98625.31
2024-02-10T15:03:10.198Z,98622.56
2024-02-10T15:05:39.769Z,98618.78
2024-02-10T15:08:07.125Z,98616.78
2024-02-10T15:10:34.044Z,98622.28
2024-02-10T15:13:05.953Z,98621.94
2024-02-10T15:15:34.209Z,98617.25
2024-02-10T15:18:02.739Z,98616.47
2024-02-10T15:20:29.725Z,98623.94
2024-02-10T15:22:56.644Z,98622.41
2024-02-10T15:25:25.390Z,98625.16
2024-02-10T15:27:52.014Z,98627.44
2024-02-10T15:30:18.631Z,98623.63
2024-02-10T15:32:47.616Z,98617.69
2024-02-10T15:35:15.309Z,98628.66
2024-02-10T15:37:42.382Z,98634.50
2024-02-10T15:40:21.871Z,98629.00
2024-02-10T15:42:50.225Z,98630.06
2024-02-10T15:45:16.980Z,98638.59
2024-02-10T15:47:43.877Z,98634.34
2024-02-10T15:50:10.710Z,98631.88
2024-02-10T15:52:37.369Z,98631.00
2024-02-10T15:55:04.763Z,98632.81
2024-02-10T15:57:31.635Z,98624.09
2024-02-10T15:59:58.121Z,98639.69
2024-02-10T16:02:27.291Z,98627.47
2024-02-10T16:04:54.321Z,98627.31
2024-02-10T16:07:22.687Z,98627.16
2024-02-10T16:09:49.426Z,98630.22
2024-02-10T16:12:17.905Z,98628.84
2024-02-10T16:14:44.753Z,98633.41
2024-02-10T16:17:15.327Z,98632.97
2024-02-10T16:19:46.131Z,98644.56
2024-02-10T16:22:12.825Z,98635.56
2024-02-10T16:24:41.264Z,98638.16
2024-02-10T16:27:07.898Z,98634.50
2024-02-10T16:29:34.419Z,98634.97
2024-02-10T16:32:00.905Z,98627.00
2024-02-10T16:34:30.600Z,98628.84
2024-02-10T16:36:59.427Z,98631.16
2024-02-10T16:39:25.965Z,98616.94
2024-02-10T16:41:53.895Z,98619.25
2024-02-10T16:44:20.579Z,98622.75
2024-02-10T16:46:48.027Z,98625.81
2024-02-10T16:49:15.844Z,98621.06
2024-02-10T16:51:42.741Z,98615.09
2024-02-10T16:54:12.590Z,98613.56
2024-02-10T16:56:40.256Z,98616.63
2024-02-10T16:59:08.591Z,98615.38
2024-02-10T17:01:35.423Z,98618.91
2024-02-10T17:04:05.103Z,98608.22
2024-02-10T17:06:36.651Z,98610.97
2024-02-10T17:09:05.387Z,98620.28
2024-02-10T17:11:31.984Z,98619.53
2024-02-10T17:13:59.729Z,98612.31
2024-02-10T17:16:26.323Z,98617.38
2024-02-10T17:18:52.915Z,98608.66
2024-02-10T17:21:19.522Z,98620.72
2024-02-10T17:23:46.892Z,98626.53
2024-02-10T17:26:14.128Z,98623.00
2024-02-10T17:28:41.748Z,98619.50
2024-02-10T17:31:11.810Z,98621.50
2024-02-10T17:33:41.824Z,98628.06
2024-02-10T17:36:13.889Z,98627.59
2024-02-10T17:38:40.582Z,98625.91
2024-02-10T17:41:13.539Z,98631.25
2024-02-10T17:43:41.120Z,98635.81
2024-02-10T17:46:07.926Z,98643.47
2024-02-10T17:48:35.443Z,98648.78
2024-02-10T17:51:02.203Z,98644.81
2024-02-10T17:53:30.038Z,98648.44
2024-02-10T17:56:00.647Z,98655.63
2024-02-10T17:58:32.209Z,98644.91
2024-02-10T18:00:59.800Z,98651.59
2024-02-10T18:03:26.769Z,98645.94
2024-02-10T18:05:55.421Z,98648.22
2024-02-10T18:08:22.780Z,98646.69
2024-02-10T18:10:50.171Z,98647.16
2024-02-10T18:13:24.048Z,98655.88
2024-02-10T18:15:51.978Z,98639.06
2024-02-10T18:18:19.334Z,98646.56
2024-02-10T18:20:47.797Z,98636.03
2024-02-10T18:23:14.684Z,98638.78
2024-02-10T18:25:43.070Z,98637.53
2024-02-10T18:28:12.329Z,98640.28
2024-02-10T18:30:39.678Z,98643.03
2024-02-10T18:33:06.370Z,98652.06
2024-02-10T18:35:32.949Z,98654.06
2024-02-10T18:38:02.199Z,98648.09
2024-02-10T18:40:30.862Z,98649.78
2024-02-10T18:42:59.277Z,98653.31
2024-02-10T18:45:28.327Z,98658.03
2024-02-10T18:47:55.476Z,98667.84
2024-02-10T18:50:22.481Z,98659.56
2024-02-10T18:52:49.946Z,98661.09
2024-02-10T18:55:20.136Z,98655.13
2024-02-10T18:57:47.348Z,98658.34
2024-02-10T19:00:17.955Z,98656.34
2024-02-10T19:02:44.482Z,98663.09
2024-02-10T19:05:10.988Z,98658.81
2024-02-10T19:07:38.544Z,98652.53
2024-02-10T19:10:08.173Z,98652.53
2024-02-10T19:12:38.704Z,98659.56
2024-02-10T19:15:08.521Z,98658.81
2024-02-10T19:17:38.338Z,98658.50
2024-02-10T19:20:09.013Z,98657.28
2024-02-10T19:22:36.878Z,98654.53
2024-02-10T19:25:10.343Z,98646.75
2024-02-10T19:27:39.624Z,98652.69
2024-02-10T19:30:10.986Z,98650.25
2024-02-10T19:32:41.850Z,98651.47
2024-02-10T19:35:22.602Z,98651.47
2024-02-10T19:37:50.324Z,98651.47
2024-02-10T19:40:18.981Z,98659.75
2024-02-10T19:42:46.791Z,98655.00
2024-02-10T19:45:15.290Z,98645.19
2024-02-10T19:47:43.615Z,98657.00
2024-02-10T19:50:10.301Z,98657.75
2024-02-10T19:52:37.086Z,98660.19
2024-02-10T19:55:03.933Z,98660.94
2024-02-10T19:57:30.761Z,98657.13
2024-02-10T19:59:57.924Z,98659.91
2024-02-10T20:02:24.713Z,98664.16
2024-02-10T20:04:51.965Z,98661.88
2024-02-10T20:07:21.503Z,98666.16
2024-02-10T20:09:48.947Z,98664.63
2024-02-10T20:12:16.861Z,98674.91
2024-02-10T20:14:43.829Z,98669.09
2024-02-10T20:17:11.627Z,98674.91
2024-02-10T20:19:39.761Z,98681.63
2024-02-10T20:22:09.809Z,98673.38
2024-02-10T20:24:37.898Z,98673.84
2024-02-10T20:27:10.201Z,98669.56
2024-02-10T20:29:39.675Z,98668.81
2024-02-10T20:32:06.796Z,98666.50
2024-02-10T20:34:36.402Z,98663.72
2024-02-10T20:37:10.445Z,98658.69
2024-02-10T20:39:40.098Z,98664.50
2024-02-10T20:42:09.187Z,98662.22
2024-02-10T20:44:38.127Z,98664.19
2024-02-10T20:47:06.866Z,98663.44
2024-02-10T20:49:37.584Z,98667.72
2024-02-10T20:52:06.278Z,98662.38
2024-02-10T20:54:36.744Z,98659.94
2024-02-10T20:57:03.522Z,98665.13
2024-02-10T20:59:30.314Z,98662.84
2024-02-10T21:01:57.537Z,98661.63
2024-02-10T21:04:24.258Z,98664.38
2024-02-10T21:06:53.883Z,98677.38
2024-02-10T21:09:26.657Z,98669.88
2024-02-10T21:11:53.173Z,98666.84
2024-02-10T21:14:19.721Z,98675.84
2024-02-10T21:16:47.854Z,98673.53
2024-02-10T21:19:14.950Z,98669.25
2024-02-10T21:21:42.634Z,98662.25
2024-02-10T21:24:09.857Z,98670.97
2024-02-10T21:26:37.456Z,98664.22
2024-02-10T21:29:07.284Z,98665.00
2024-02-10T21:31:37.455Z,98665.47
2024-02-10T21:34:05.822Z,98670.97
2024-02-10T21:36:35.376Z,98664.69
2024-02-10T21:39:05.789Z,98663.94
2024-02-10T21:41:32.360Z,98661.66
2024-02-10T21:43:58.966Z,98659.66
2024-02-10T21:46:27.496Z,98652.63
2024-02-10T21:48:54.338Z,98657.38
2024-02-10T21:51:21.129Z,98652.31
2024-02-10T21:53:47.689Z,98650.78
2024-02-10T21:56:14.862Z,98647.28
2024-02-10T21:58:43.812Z,98648.03
2024-02-10T22:01:12.436Z,98644.53
2024-02-10T22:03:39.074Z,98650.78
2024-02-10T22:06:05.847Z,98649.25
2024-02-10T22:08:32.693Z,98650.03
2024-02-10T22:10:59.280Z,98647.28
2024-02-10T22:13:27.560Z,98645.75
2024-02-10T22:15:54.029Z,98633.50
2024-02-10T22:18:22.744Z,98634.44
2024-02-10T22:20:50.030Z,98631.69
2024-02-10T22:23:16.764Z,98627.13
2024-02-10T22:25:46.410Z,98617.78
2024-02-10T22:28:13.188Z,98633.06
2024-02-10T22:30:40.900Z,98630.78
2024-02-10T22:33:07.895Z,98628.03
2024-02-10T22:35:38.436Z,98630.19
2024-02-10T22:38:08.151Z,98626.69
2024-02-10T22:40:41.434Z,98629.44
2024-02-10T22:43:10.806Z,98620.84
2024-02-10T22:45:38.517Z,98629.91
2024-02-10T22:48:11.306Z,98628.34
2024-02-10T22:50:38.782Z,98616.28
2024-02-10T22:53:05.658Z,98626.06
2024-02-10T22:55:37.096Z,98627.28
2024-02-10T22:58:08.537Z,98626.53
2024-02-10T23:00:44.523Z,98629.75
2024-02-10T23:03:13.129Z,98626.69
2024-02-10T23:05:39.840Z,98623.63
2024-02-10T23:08:08.154Z,98625.94
2024-02-10T23:10:34.904Z,98625.19
2024-02-10T23:13:16.542Z,98624.09
2024-02-10T23:15:44.289Z,98631.13
2024-02-10T23:18:11.841Z,98623.31
2024-02-10T23:20:42.339Z,98618.28
2024-02-10T23:23:14.411Z,98623.03
2024-02-10T23:25:45.176Z,98623.03
2024-02-10T23:28:15.869Z,98614.78
2024-02-10T23:30:50.931Z,98612.19
2024-02-10T23:33:24.028Z,98612.97
2024-02-10T23:35:51.786Z,98607.47
2024-02-10T23:38:18.509Z,98601.63
2024-02-10T23:40:45.928Z,98602.41
2024-02-10T23:43:15.987Z,98597.38
2024-02-10T23:45:43.442Z,98601.63
2024-02-10T23:48:13.272Z,98597.38
2024-02-10T23:50:39.985Z,98591.88
2024-02-10T23:53:06.728Z,98590.34
2024-02-10T23:55:38.051Z,98600.56
2024-02-10T23:58:05.895Z,98595.53
